Time;durP1;ratioP1;P1;durP2;ratioP2;P2;SDS_P1;SDS_P2;PMS_P1;PMS_P2;Temp;Humidity;BMP_temperature;BMP_pressure;BME280_temperature;BME280_humidity;BME280_pressure;Samples;Min_cycle;Max_cycle;Signal;HPM_P1;HPM_P2
2024/04/20 00:00:22;;;;;;;18.70;15.50;;;;;;;4.31;95.69;98816.27;103262;1259;106825;-76
2024/04/20 00:03:10;;;;;;;20.80;17.20;;;;;;;4.33;96.01;98826.36;102830;1260;138552;-76
2024/04/20 00:05:39;;;;;;;20.30;16.80;;;;;;;4.31;95.87;98824.34;103040;1259;107410;-76
2024/04/20 00:08:06;;;;;;;18.40;16.20;;;;;;;4.34;95.87;98823.06;102958;1259;99164;-76
2024/04/20 00:10:35;;;;;;;19.50;17.10;;;;;;;4.35;96.09;98823.38;102817;1259;138608;-75
2024/04/20 00:13:02;;;;;;;22.70;16.60;;;;;;;4.35;96.11;98820.62;102872;1259;107555;-76
2024/04/20 00:15:29;;;;;;;23.00;17.90;;;;;;;4.35;95.79;98817.68;102963;1263;138629;-75
2024/04/20 00:17:57;;;;;;;22.80;16.70;;;;;;;4.36;96.07;98821.45;102992;1259;109021;-75
2024/04/20 00:20:25;;;;;;;21.50;17.50;;;;;;;4.35;96.30;98815.96;102947;1259;99297;-74
2024/04/20 00:22:53;;;;;;;23.40;17.40;;;;;;;4.35;96.69;98812.36;103085;1259;111738;-75
2024/04/20 00:25:20;;;;;;;20.60;17.00;;;;;;;4.35;97.09;98813.57;103089;1259;107451;-75
2024/04/20 00:27:47;;;;;;;20.00;16.90;;;;;;;4.35;96.61;98812.54;102895;1259;138526;-74
2024/04/20 00:30:14;;;;;;;19.00;16.40;;;;;;;4.36;96.10;98811.48;103073;1259;107863;-74
2024/04/20 00:32:41;;;;;;;23.90;18.20;;;;;;;4.35;96.63;98812.35;102913;1259;138708;-74
2024/04/20 00:35:09;;;;;;;21.00;17.20;;;;;;;4.36;97.34;98814.91;102955;1259;112932;-74
2024/04/20 00:37:36;;;;;;;20.90;17.80;;;;;;;4.36;96.96;98815.08;102960;1259;107664;-75
2024/04/20 00:40:03;;;;;;;23.10;18.60;;;;;;;4.36;96.97;98812.84;102991;1263;138599;-74
2024/04/20 00:42:30;;;;;;;23.30;19.20;;;;;;;4.36;97.01;98810.26;103048;1258;106977;-75
2024/04/20 00:44:58;;;;;;;20.10;18.00;;;;;;;4.37;97.28;98811.09;102903;1263;140418;-75
2024/04/20 00:47:25;;;;;;;22.20;18.30;;;;;;;4.38;97.38;98812.79;103151;1259;111917;-77
2024/04/20 00:49:52;;;;;;;20.50;18.30;;;;;;;4.35;97.39;98806.65;102892;1262;106528;-73
2024/04/20 00:52:19;;;;;;;22.20;19.00;;;;;;;4.39;97.60;98812.42;102871;1259;138626;-74
2024/04/20 00:54:46;;;;;;;22.50;18.80;;;;;;;4.39;97.96;98814.98;102904;1260;106920;-73
2024/04/20 00:57:13;;;;;;;22.60;18.10;;;;;;;4.39;97.98;98811.55;103134;1260;139896;-74
2024/04/20 00:59:41;;;;;;;21.20;18.60;;;;;;;4.40;97.58;98815.48;103051;1259;111196;-75
2024/04/20 01:02:09;;;;;;;20.80;18.10;;;;;;;4.40;97.88;98811.85;103064;1259;106744;-75
2024/04/20 01:04:36;;;;;;;22.00;18.10;;;;;;;4.41;98.45;98811.33;103025;1259;140100;-75
2024/04/20 01:07:03;;;;;;;21.20;18.40;;;;;;;4.41;98.20;98813.02;102913;1259;108232;-75
2024/04/20 01:09:31;;;;;;;20.10;17.80;;;;;;;4.41;98.46;98814.39;102960;1259;138534;-74
2024/04/20 01:11:58;;;;;;;21.80;17.40;;;;;;;4.41;98.38;98814.05;103051;1263;112299;-74
2024/04/20 01:14:25;;;;;;;20.30;17.20;;;;;;;4.41;98.19;98813.19;103033;1259;106726;-74
2024/04/20 01:16:52;;;;;;;21.80;18.10;;;;;;;4.42;98.21;98813.69;102949;1259;99753;-73
2024/04/20 01:19:23;;;;;;;22.00;17.70;;;;;;;4.43;98.36;98815.37;103016;1263;107180;-73
2024/04/20 01:21:51;;;;;;;19.70;17.40;;;;;;;4.44;98.46;98819.14;103131;1259;139164;-73
2024/04/20 01:24:23;;;;;;;21.10;17.70;;;;;;;4.44;98.39;98819.29;102291;1259;1002842;-73
2024/04/20 01:26:50;;;;;;;21.20;16.90;;;;;;;4.46;98.66;98817.34;102900;1259;139482;-74
2024/04/20 01:29:17;;;;;;;18.50;16.10;;;;;;;4.47;98.80;98823.85;103026;1259;99790;-73
2024/04/20 01:31:44;;;;;;;19.80;16.60;;;;;;;4.47;98.78;98815.59;103034;1263;106979;-74
2024/04/20 01:34:11;;;;;;;19.20;17.10;;;;;;;4.48;98.93;98815.05;102967;1259;138763;-74
2024/04/20 01:36:38;;;;;;;20.40;16.80;;;;;;;4.49;99.02;98818.29;103101;1259;111969;-74
2024/04/20 01:39:05;;;;;;;18.80;16.80;;;;;;;4.50;98.67;98816.73;102811;1259;138905;-74
2024/04/20 01:41:32;;;;;;;22.00;16.90;;;;;;;4.48;99.01;98814.20;102992;1259;99707;-74
2024/04/20 01:43:59;;;;;;;18.20;16.20;;;;;;;4.50;98.85;98821.02;103329;1259;107575;-72
2024/04/20 01:46:26;;;;;;;19.80;16.40;;;;;;;4.50;98.92;98816.20;102964;1259;138712;-72
2024/04/20 01:48:53;;;;;;;18.80;16.20;;;;;;;4.52;98.61;98824.05;102804;1264;113559;-72
2024/04/20 01:51:20;;;;;;;17.90;15.90;;;;;;;4.53;98.64;98824.22;103117;1259;139805;-73
2024/04/20 01:53:47;;;;;;;18.30;16.00;;;;;;;4.53;98.93;98818.88;102940;1263;99198;-73
2024/04/20 01:56:14;;;;;;;18.50;16.50;;;;;;;4.55;98.73;98821.74;102910;1259;108334;-72
2024/04/20 01:58:41;;;;;;;20.90;17.20;;;;;;;4.56;98.51;98824.61;102838;1263;140394;-73
2024/04/20 02:01:08;;;;;;;21.50;16.70;;;;;;;4.58;98.60;98827.34;103056;1259;113216;-73
2024/04/20 02:03:35;;;;;;;18.80;16.10;;;;;;;4.58;98.83;98831.45;102795;1259;138519;-73
2024/04/20 02:06:03;;;;;;;19.50;16.20;;;;;;;4.57;98.92;98834.58;102877;1260;99819;-73
2024/04/20 02:08:30;;;;;;;20.60;16.40;;;;;;;4.56;98.64;98832.89;103484;1259;138679;-71
2024/04/20 02:10:57;;;;;;;19.60;16.80;;;;;;;4.55;99.10;98829.30;102922;1263;99046;-73
2024/04/20 02:13:24;;;;;;;18.80;15.50;;;;;;;4.54;98.66;98829.00;103078;1259;111667;-71
2024/04/20 02:15:53;;;;;;;20.30;17.10;;;;;;;4.54;98.92;98830.02;102849;1259;138852;-72
2024/04/20 02:18:20;;;;;;;18.90;16.80;;;;;;;4.55;98.68;98829.49;102996;1259;160932;-73
2024/04/20 02:20:47;;;;;;;20.10;16.50;;;;;;;4.55;98.40;98829.31;103034;1259;140600;-73
2024/04/20 02:23:15;;;;;;;19.10;16.50;;;;;;;4.55;98.47;98833.77;102984;1259;99230;-73
2024/04/20 02:25:42;;;;;;;18.90;16.40;;;;;;;4.56;98.40;98835.30;103060;1259;113018;-72
2024/04/20 02:28:09;;;;;;;20.40;17.00;;;;;;;4.55;98.38;98838.42;102896;1259;138629;-72
2024/04/20 02:30:36;;;;;;;20.20;16.40;;;;;;;4.55;98.26;98837.23;102914;1259;99696;-73
2024/04/20 02:33:04;;;;;;;19.00;16.60;;;;;;;4.54;98.35;98839.84;102831;1259;138798;-72
2024/04/20 02:35:31;;;;;;;20.00;16.70;;;;;;;4.52;98.47;98842.98;103021;1259;99172;-73
2024/04/20 02:37:58;;;;;;;20.10;16.70;;;;;;;4.52;98.44;98836.63;102940;1259;112381;-73
2024/04/20 02:40:25;;;;;;;19.60;17.10;;;;;;;4.53;98.47;98840.89;102893;1259;139044;-72
2024/04/20 02:42:52;;;;;;;18.90;16.80;;;;;;;4.54;98.84;98841.03;103120;1259;100864;-72
2024/04/20 02:45:19;;;;;;;19.90;17.00;;;;;;;4.56;99.06;98839.61;103036;1259;138562;-74
2024/04/20 02:47:46;;;;;;;21.30;16.90;;;;;;;4.57;98.98;98838.21;102947;1259;99175;-73
2024/04/20 02:50:13;;;;;;;19.40;16.60;;;;;;;4.55;99.04;98841.69;103028;1259;113741;-72
2024/04/20 02:52:40;;;;;;;20.40;16.60;;;;;;;4.54;99.13;98839.30;102935;1259;138363;-72
2024/04/20 02:55:08;;;;;;;21.20;18.00;;;;;;;4.54;98.79;98844.81;103086;1259;99190;-74
2024/04/20 02:57:35;;;;;;;19.20;17.10;;;;;;;4.56;99.14;98845.98;102894;1259;140847;-72
2024/04/20 03:00:02;;;;;;;20.10;17.60;;;;;;;4.55;99.09;98848.76;103106;1259;99156;-73
2024/04/20 03:02:29;;;;;;;20.80;17.00;;;;;;;4.56;99.22;98844.94;102892;1263;138498;-71
2024/04/20 03:04:56;;;;;;;19.10;16.80;;;;;;;4.58;99.41;98847.46;102921;1259;108428;-72
2024/04/20 03:07:25;;;;;;;20.00;17.20;;;;;;;4.57;99.23;98848.00;103089;1259;99164;-72
2024/04/20 03:09:52;;;;;;;20.20;16.30;;;;;;;4.57;99.52;98851.10;102944;1259;138496;-73
2024/04/20 03:12:19;;;;;;;19.20;16.50;;;;;;;4.58;99.35;98849.89;102970;1263;100280;-72
2024/04/20 03:14:46;;;;;;;20.80;16.90;;;;;;;4.59;99.50;98854.66;102856;1259;139068;-72
2024/04/20 03:17:13;;;;;;;18.40;16.40;;;;;;;4.59;99.60;98854.84;102952;1259;107550;-73
2024/04/20 03:19:41;;;;;;;19.20;16.60;;;;;;;4.61;99.60;98862.50;102195;1259;1003495;-72
2024/04/20 03:22:09;;;;;;;20.00;17.20;;;;;;;4.61;99.64;98860.77;103005;1261;138713;-71
2024/04/20 03:24:36;;;;;;;21.80;17.10;;;;;;;4.61;99.63;98858.05;103011;1263;99185;-72
2024/04/20 03:27:04;;;;;;;19.20;17.20;;;;;;;4.63;99.95;98862.28;102179;1259;1002836;-73
2024/04/20 03:29:31;;;;;;;22.10;18.20;;;;;;;4.63;99.99;98860.02;103178;1259;107151;-74
2024/04/20 03:31:58;;;;;;;18.90;16.20;;;;;;;4.64;99.93;98865.34;103006;1259;101236;-73
2024/04/20 03:34:25;;;;;;;20.00;16.10;;;;;;;4.64;99.81;98861.89;102901;1259;138686;-73
2024/04/20 03:36:52;;;;;;;20.30;17.30;;;;;;;4.65;99.73;98863.23;102982;1259;99165;-72
2024/04/20 03:39:20;;;;;;;20.80;16.10;;;;;;;4.66;100.00;98867.17;102936;1263;138692;-73
2024/04/20 03:41:46;;;;;;;19.50;17.50;;;;;;;4.66;100.00;98864.92;103208;1259;106665;-72
2024/04/20 03:44:14;;;;;;;19.10;16.90;;;;;;;4.68;99.95;98861.80;104339;1259;97447;-72
2024/04/20 03:46:40;;;;;;;19.20;16.30;;;;;;;4.70;100.00;98870.16;104207;1259;138617;-73
2024/04/20 03:49:07;;;;;;;18.60;16.40;;;;;;;4.71;99.95;98867.91;104314;1259;97029;-73
2024/04/20 03:51:34;;;;;;;20.00;17.20;;;;;;;4.73;99.97;98868.00;104224;1259;139229;-72
2024/04/20 03:54:01;;;;;;;18.80;16.70;;;;;;;4.76;99.94;98874.80;104288;1259;107647;-71
2024/04/20 03:56:28;;;;;;;18.50;16.10;;;;;;;4.79;100.00;98880.05;104219;1259;138625;-72
2024/04/20 03:58:55;;;;;;;20.50;17.20;;;;;;;4.80;99.93;98884.13;101593;1259;1003405;-73
2024/04/20 04:01:22;;;;;;;20.50;17.10;;;;;;;4.81;99.89;98888.05;102944;1259;99268;-72
2024/04/20 04:03:49;;;;;;;22.10;17.10;;;;;;;4.84;99.80;98889.35;102930;1259;138368;-73
2024/04/20 04:06:17;;;;;;;19.40;17.40;;;;;;;4.86;99.70;98890.70;103083;1259;107123;-72
2024/04/20 04:08:44;;;;;;;20.50;17.70;;;;;;;4.86;99.95;98885.52;102830;1259;138920;-72
2024/04/20 04:11:11;;;;;;;21.60;18.40;;;;;;;4.90;100.00;98890.90;102803;1259;108509;-71
2024/04/20 04:13:37;;;;;;;19.30;17.20;;;;;;;4.89;99.86;98893.86;104312;1263;98082;-73
2024/04/20 04:16:06;;;;;;;19.10;17.20;;;;;;;4.92;99.83;98899.79;102910;1259;138863;-73
2024/04/20 04:18:33;;;;;;;19.40;17.30;;;;;;;4.96;99.72;98900.54;102927;1259;106746;-72
2024/04/20 04:21:00;;;;;;;21.20;18.80;;;;;;;4.98;99.68;98902.17;102937;1260;139799;-72
2024/04/20 04:23:27;;;;;;;23.70;18.20;;;;;;;5.01;99.52;98905.73;102972;1263;107939;-72
2024/04/20 04:25:54;;;;;;;20.40;17.60;;;;;;;5.02;99.77;98909.98;103081;1259;99428;-72
2024/04/20 04:28:21;;;;;;;20.00;17.80;;;;;;;5.04;99.64;98906.34;102924;1259;138499;-71
2024/04/20 04:30:48;;;;;;;21.60;17.80;;;;;;;5.06;99.56;98915.72;103039;1259;108018;-71
2024/04/20 04:33:15;;;;;;;19.20;17.10;;;;;;;5.08;99.26;98914.30;103055;1259;138585;-72
2024/04/20 04:35:42;;;;;;;19.70;17.20;;;;;;;5.11;99.44;98917.30;102971;1259;106680;-72
2024/04/20 04:38:09;;;;;;;20.40;18.20;;;;;;;5.14;99.28;98918.40;102992;1263;99188;-72
2024/04/20 04:40:37;;;;;;;19.10;17.00;;;;;;;5.18;99.03;98926.01;102822;1259;138579;-72
2024/04/20 04:43:04;;;;;;;20.10;17.70;;;;;;;5.21;99.32;98927.84;102876;1259;108891;-72
2024/04/20 04:45:31;;;;;;;21.60;18.50;;;;;;;5.22;98.97;98930.91;104126;1259;139579;-72
2024/04/20 04:47:58;;;;;;;18.70;16.80;;;;;;;5.25;98.74;98936.66;103222;1259;106893;-72
2024/04/20 04:50:26;;;;;;;19.90;16.90;;;;;;;5.29;98.51;98938.80;102965;1262;99118;-71
2024/04/20 04:52:52;;;;;;;19.90;17.70;;;;;;;5.32;98.48;98945.58;102991;1259;112162;-72
2024/04/20 04:55:20;;;;;;;19.30;17.20;;;;;;;5.37;98.44;98946.63;102906;1263;107988;-72
2024/04/20 04:57:47;;;;;;;20.70;17.20;;;;;;;5.42;98.36;98949.23;102981;1259;138546;-72
2024/04/20 05:00:16;;;;;;;19.10;17.10;;;;;;;5.44;98.16;98955.54;102970;1259;107383;-71
2024/04/20 05:02:43;;;;;;;20.60;17.30;;;;;;;5.46;98.09;98959.45;102838;1259;139656;-72
2024/04/20 05:05:10;;;;;;;20.40;18.00;;;;;;;5.47;97.90;98965.44;102926;1259;112151;-71
2024/04/20 05:07:37;;;;;;;19.20;17.20;;;;;;;5.48;98.25;98968.18;103035;1259;107914;-72
2024/04/20 05:10:05;;;;;;;19.80;17.70;;;;;;;5.48;97.96;98965.09;102860;1259;138522;-72
2024/04/20 05:12:33;;;;;;;20.10;17.90;;;;;;;5.47;98.11;98969.05;102976;1263;107652;-72
2024/04/20 05:14:59;;;;;;;20.40;17.60;;;;;;;5.48;98.00;98972.66;103213;1259;140640;-74
2024/04/20 05:17:26;;;;;;;20.50;17.50;;;;;;;5.48;97.80;98970.58;102970;1263;113000;-74
2024/04/20 05:19:54;;;;;;;17.90;15.90;;;;;;;5.49;98.03;98975.38;103116;1259;106863;-71
2024/04/20 05:22:21;;;;;;;18.50;15.20;;;;;;;5.51;97.97;98985.31;102918;1259;139502;-72
2024/04/20 05:24:48;;;;;;;16.60;14.70;;;;;;;5.51;98.15;98985.48;102985;1259;107782;-72
2024/04/20 05:27:15;;;;;;;15.80;14.30;;;;;;;5.51;97.74;98987.55;102827;1263;139011;-72
2024/04/20 05:29:42;;;;;;;17.20;14.30;;;;;;;5.52;97.46;98994.77;102989;1259;113916;-72
2024/04/20 05:32:09;;;;;;;16.20;14.00;;;;;;;5.53;97.27;98996.96;102910;1259;106662;-72
2024/04/20 05:34:36;;;;;;;15.10;13.60;;;;;;;5.56;97.13;98996.88;103047;1259;138583;-72
2024/04/20 05:37:03;;;;;;;17.90;15.20;;;;;;;5.61;97.21;99001.39;102986;1263;107418;-72
2024/04/20 05:39:32;;;;;;;17.70;15.80;;;;;;;5.65;97.10;99009.17;102794;1259;138778;-72
2024/04/20 05:42:00;;;;;;;17.90;15.60;;;;;;;5.68;97.04;99010.11;103106;1259;112930;-72
2024/04/20 05:44:27;;;;;;;17.10;15.40;;;;;;;5.69;97.08;99011.79;102844;1259;107872;-72
2024/04/20 05:46:54;;;;;;;17.90;16.10;;;;;;;5.71;97.21;99013.98;104313;1259;97605;-72
2024/04/20 05:49:21;;;;;;;19.30;17.00;;;;;;;5.76;97.10;99013.83;104323;1261;109641;-72
2024/04/20 05:51:47;;;;;;;19.90;17.80;;;;;;;5.81;97.08;99013.83;104188;1259;138842;-72
2024/04/20 05:54:16;;;;;;;18.90;17.00;;;;;;;5.87;97.18;99021.23;104297;1259;111852;-72
2024/04/20 05:56:43;;;;;;;20.30;17.70;;;;;;;5.95;97.18;99020.83;104147;1259;139163;-72
2024/04/20 05:59:10;;;;;;;20.40;18.10;;;;;;;6.02;96.88;99023.36;103013;1259;99157;-72
2024/04/20 06:01:36;;;;;;;22.10;19.50;;;;;;;6.08;96.63;99026.11;102990;1263;107305;-71
2024/04/20 06:04:04;;;;;;;21.90;18.40;;;;;;;6.12;96.51;99025.46;103514;1261;138732;-71
2024/04/20 06:06:31;;;;;;;20.30;18.00;;;;;;;6.18;96.65;99025.40;102936;1259;112645;-72
2024/04/20 06:08:59;;;;;;;20.30;17.70;;;;;;;6.24;96.28;99026.08;103477;1259;138721;-72
2024/04/20 06:11:26;;;;;;;22.00;17.90;;;;;;;6.31;96.00;99027.91;102922;1263;99164;-72
2024/04/20 06:13:53;;;;;;;20.20;18.10;;;;;;;6.34;95.84;99034.16;102938;1263;106697;-71
2024/04/20 06:16:24;;;;;;;19.60;17.60;;;;;;;6.38;95.53;99036.80;103245;1259;138521;-72
2024/04/20 06:18:51;;;;;;;18.90;16.20;;;;;;;6.45;95.59;99035.02;103131;1259;113015;-71
2024/04/20 06:21:18;;;;;;;18.30;16.40;;;;;;;6.49;95.18;99038.86;103849;1259;138689;-71
2024/04/20 06:23:45;;;;;;;18.00;16.10;;;;;;;6.52;94.92;99041.84;103254;1259;99702;-71
2024/04/20 06:26:13;;;;;;;17.70;15.70;;;;;;;6.53;94.70;99046.14;102890;1259;1016428;-73
2024/04/20 06:28:40;;;;;;;17.10;15.30;;;;;;;6.54;94.56;99047.64;102968;1259;139168;-72
2024/04/20 06:31:07;;;;;;;17.40;15.60;;;;;;;6.58;94.43;99050.45;102951;1259;112459;-71
2024/04/20 06:33:34;;;;;;;18.60;16.20;;;;;;;6.61;94.28;99053.60;103041;1259;138543;-71
2024/04/20 06:36:01;;;;;;;18.30;16.20;;;;;;;6.63;94.28;99054.23;103470;1259;99700;-69
2024/04/20 06:38:28;;;;;;;18.90;16.30;;;;;;;6.67;94.21;99056.35;103113;1263;106724;-68
2024/04/20 06:40:56;;;;;;;19.60;16.40;;;;;;;6.70;94.17;99058.86;103313;1259;99140;-70
2024/04/20 06:43:23;;;;;;;19.30;15.90;;;;;;;6.72;93.99;99063.45;104269;1259;112648;-70
2024/04/20 06:45:50;;;;;;;17.20;15.40;;;;;;;6.73;93.79;99070.99;104074;1259;138656;-69
2024/04/20 06:48:17;;;;;;;16.90;15.20;;;;;;;6.75;93.78;99072.63;104296;1259;97319;-69
2024/04/20 06:50:44;;;;;;;17.90;15.10;;;;;;;6.74;93.36;99069.58;104148;1259;138427;-69
2024/04/20 06:53:10;;;;;;;18.70;14.70;;;;;;;6.78;93.11;99077.19;104299;1259;97375;-69
2024/04/20 06:55:37;;;;;;;16.90;15.10;;;;;;;6.80;92.99;99079.35;103878;1259;112671;-70
2024/04/20 06:58:04;;;;;;;15.60;13.90;;;;;;;6.83;93.06;99082.56;103527;1259;139160;-72
2024/04/20 07:00:31;;;;;;;15.90;14.30;;;;;;;6.88;93.05;99087.58;102929;1259;99700;-70
2024/04/20 07:02:58;;;;;;;17.40;15.40;;;;;;;6.91;92.98;99085.70;103187;1259;138880;-70
2024/04/20 07:05:26;;;;;;;16.50;14.70;;;;;;;6.97;93.09;99093.78;103110;1263;99204;-71
2024/04/20 07:07:53;;;;;;;15.60;14.00;;;;;;;7.05;93.14;99095.45;103080;1259;111469;-70
2024/04/20 07:10:19;;;;;;;17.00;14.20;;;;;;;7.09;92.65;99100.61;103305;1259;139021;-70
2024/04/20 07:12:46;;;;;;;15.00;13.20;;;;;;;7.15;92.46;99098.31;103586;1259;99182;-71
2024/04/20 07:15:14;;;;;;;14.30;12.80;;;;;;;7.21;91.95;99100.03;102947;1259;138482;-71
2024/04/20 07:17:46;;;;;;;14.20;12.70;;;;;;;7.28;91.66;99104.95;102857;1259;99183;-69
2024/04/20 07:20:13;;;;;;;13.20;11.90;;;;;;;7.36;91.13;99104.31;102970;1259;112223;-69
2024/04/20 07:22:40;;;;;;;12.40;11.10;;;;;;;7.50;90.85;99105.50;103129;1259;139121;-69
2024/04/20 07:25:08;;;;;;;12.40;11.00;;;;;;;7.62;90.71;99108.33;102937;1259;99790;-69
2024/04/20 07:27:35;;;;;;;12.20;11.00;;;;;;;7.80;90.38;99101.73;102910;1259;138853;-68
2024/04/20 07:30:02;;;;;;;15.60;10.40;;;;;;;8.15;90.26;99102.96;102991;1259;99175;-69
2024/04/20 07:32:29;;;;;;;10.80;9.50;;;;;;;8.78;90.54;99105.36;103067;1259;111574;-69
2024/04/20 07:34:56;;;;;;;9.80;8.70;;;;;;;9.55;89.52;99104.67;102811;1259;109180;-71
2024/04/20 07:37:23;;;;;;;8.70;7.80;;;;;;;10.67;88.59;99107.80;103618;1259;98486;-69
2024/04/20 07:39:51;;;;;;;7.80;7.00;;;;;;;11.65;85.24;99099.50;103302;1259;138381;-68
2024/04/20 07:42:18;;;;;;;7.50;6.40;;;;;;;12.05;81.87;99098.52;103096;1259;99434;-69
2024/04/20 07:44:45;;;;;;;6.60;6.00;;;;;;;12.23;80.04;99103.77;102864;1259;139637;-68
2024/04/20 07:47:12;;;;;;;8.40;6.10;;;;;;;12.45;78.93;99105.98;102864;1259;107761;-69
2024/04/20 07:49:43;;;;;;;7.10;6.40;;;;;;;12.78;76.85;99105.30;104345;1259;97321;-70
2024/04/20 07:52:10;;;;;;;6.40;5.80;;;;;;;12.61;75.22;99110.58;104186;1259;138595;-68
2024/04/20 07:54:37;;;;;;;6.00;5.50;;;;;;;12.30;74.93;99118.55;104286;1259;97084;-71
2024/04/20 07:57:04;;;;;;;5.10;4.60;;;;;;;11.93;74.46;99120.11;104118;1259;138224;-68
2024/04/20 07:59:31;;;;;;;5.40;4.90;;;;;;;11.60;74.44;99126.25;104188;1263;107406;-69
2024/04/20 08:01:58;;;;;;;6.10;5.60;;;;;;;11.35;74.58;99131.20;104289;1259;98017;-70
2024/04/20 08:04:25;;;;;;;6.40;4.90;;;;;;;11.13;74.75;99134.67;103431;1259;138374;-68
2024/04/20 08:06:53;;;;;;;4.80;4.40;;;;;;;10.89;74.46;99140.95;103101;1259;100562;-69
2024/04/20 08:09:20;;;;;;;4.80;4.40;;;;;;;10.67;74.24;99142.95;102871;1259;138692;-69
2024/04/20 08:11:47;;;;;;;5.40;4.70;;;;;;;10.49;74.40;99149.20;103294;1259;109214;-71
2024/04/20 08:14:15;;;;;;;8.50;4.80;;;;;;;10.37;74.78;99151.18;102724;1264;100320;-70
2024/04/20 08:16:42;;;;;;;6.40;4.90;;;;;;;10.28;75.28;99148.18;102748;1264;138844;-69
2024/04/20 08:19:09;;;;;;;7.20;6.50;;;;;;;10.19;75.28;99150.98;102840;1264;99604;-69
2024/04/20 08:21:36;;;;;;;5.40;4.90;;;;;;;10.13;75.47;99155.63;103838;1263;138989;-70
2024/04/20 08:24:04;;;;;;;6.10;5.50;;;;;;;10.08;75.27;99166.97;103077;1259;106779;-70
2024/04/20 08:26:31;;;;;;;5.80;4.90;;;;;;;10.05;75.25;99167.80;102923;1259;99711;-66
2024/04/20 08:28:59;;;;;;;5.70;5.10;;;;;;;9.97;74.61;99172.52;102945;1259;108179;-66
2024/04/20 08:31:26;;;;;;;5.50;5.00;;;;;;;9.88;75.09;99179.02;103270;1264;97720;-69
2024/04/20 08:33:53;;;;;;;5.80;5.30;;;;;;;9.84;75.21;99181.48;103230;1259;138239;-69
2024/04/20 08:36:20;;;;;;;6.80;6.20;;;;;;;9.77;75.41;99183.71;103028;1259;107039;-70
2024/04/20 08:38:47;;;;;;;6.40;5.80;;;;;;;9.66;75.47;99184.01;103215;1259;138648;-69
2024/04/20 08:41:17;;;;;;;5.40;4.90;;;;;;;9.52;75.57;99195.58;102856;1259;106924;-71
2024/04/20 08:43:44;;;;;;;5.20;4.70;;;;;;;9.35;76.08;99194.27;104101;1259;97227;-72
2024/04/20 08:46:14;;;;;;;6.00;5.50;;;;;;;9.28;76.36;99201.30;104199;1259;138904;-72
2024/04/20 08:48:42;;;;;;;5.80;5.30;;;;;;;9.21;76.76;99202.36;104186;1259;107398;-72
2024/04/20 08:51:09;;;;;;;5.70;5.10;;;;;;;9.17;77.34;99203.56;104111;1263;139060;-72
2024/04/20 08:53:37;;;;;;;6.10;5.50;;;;;;;9.19;77.52;99205.23;104280;1259;108618;-70
2024/04/20 08:56:05;;;;;;;6.20;5.60;;;;;;;9.30;78.32;99209.23;104246;1259;97348;-70
2024/04/20 08:58:32;;;;;;;6.10;5.60;;;;;;;9.51;78.36;99210.19;104198;1259;140049;-70
2024/04/20 09:01:01;;;;;;;6.30;5.70;;;;;;;9.88;78.69;99209.09;104231;1259;107779;-71
2024/04/20 09:03:29;;;;;;;6.60;5.90;;;;;;;10.33;78.37;99207.87;103201;1259;138494;-71
2024/04/20 09:05:57;;;;;;;5.70;4.50;;;;;;;10.72;77.40;99206.48;103357;1259;107022;-71
2024/04/20 09:08:25;;;;;;;4.70;4.30;;;;;;;11.18;76.76;99210.58;102964;1259;99148;-70
2024/04/20 09:10:53;;;;;;;4.60;4.10;;;;;;;11.66;75.78;99213.80;103056;1259;114203;-71
2024/04/20 09:13:20;;;;;;;4.40;4.00;;;;;;;12.00;74.94;99211.86;103159;1263;106763;-72
2024/04/20 09:15:48;;;;;;;5.40;4.90;;;;;;;12.23;74.36;99216.71;102530;1262;138681;-71
2024/04/20 09:18:16;;;;;;;4.80;4.30;;;;;;;12.32;72.98;99220.38;103051;1262;107849;-70
2024/04/20 09:20:45;;;;;;;4.10;3.80;;;;;;;12.39;71.94;99225.94;102933;1264;138848;-73
2024/04/20 09:23:12;;;;;;;4.50;4.10;;;;;;;12.39;70.97;99226.95;102888;1260;111944;-70
2024/04/20 09:25:40;;;;;;;4.30;3.90;;;;;;;12.42;70.68;99232.92;103104;1262;107317;-70
2024/04/20 09:28:09;;;;;;;5.60;4.30;;;;;;;12.39;69.90;99232.38;102676;1261;137898;-71
2024/04/20 09:30:37;;;;;;;4.00;3.60;;;;;;;12.37;69.64;99236.81;102878;1262;108734;-71
2024/04/20 09:33:04;;;;;;;3.80;3.40;;;;;;;12.45;69.33;99235.67;102689;1262;138243;-71
2024/04/20 09:35:31;;;;;;;3.70;3.40;;;;;;;12.54;68.52;99239.17;102865;1262;113254;-72
2024/04/20 09:38:00;;;;;;;3.20;3.00;;;;;;;12.65;68.11;99235.77;102966;1262;107083;-72
2024/04/20 09:40:27;;;;;;;3.50;3.20;;;;;;;12.81;67.79;99239.58;102834;1261;137896;-71
2024/04/20 09:42:58;;;;;;;3.60;3.30;;;;;;;12.91;67.08;99243.38;103688;1260;108019;-71
2024/04/20 09:45:29;;;;;;;4.20;3.40;;;;;;;12.96;66.72;99249.02;104114;1260;140770;-71
2024/04/20 09:47:59;;;;;;;3.50;3.20;;;;;;;12.99;66.50;99247.91;104193;1262;113346;-72
2024/04/20 09:50:27;;;;;;;3.40;3.10;;;;;;;12.95;66.13;99255.52;104168;1261;106248;-72
2024/04/20 09:52:58;;;;;;;3.70;3.30;;;;;;;12.89;66.08;99256.02;104107;1262;97301;-72
2024/04/20 09:55:29;;;;;;;3.80;3.50;;;;;;;12.82;66.01;99257.52;104149;1262;107176;-72
2024/04/20 09:57:58;;;;;;;4.50;4.00;;;;;;;12.74;66.35;99260.19;104028;1261;138553;-72
2024/04/20 10:00:25;;;;;;;4.30;3.90;;;;;;;12.76;66.54;99264.48;104143;1260;112507;-71
2024/04/20 10:02:53;;;;;;;4.30;3.90;;;;;;;12.76;66.64;99266.89;102900;1265;138076;-75
2024/04/20 10:05:22;;;;;;;3.50;3.20;;;;;;;12.90;67.02;99266.78;103106;1262;99637;-74
2024/04/20 10:07:50;;;;;;;3.60;3.30;;;;;;;13.07;66.65;99267.38;103218;1262;107629;-74
2024/04/20 10:10:22;;;;;;;4.20;3.80;;;;;;;13.25;66.55;99265.14;102833;1262;137840;-73
2024/04/20 10:12:50;;;;;;;4.70;4.20;;;;;;;13.45;66.67;99264.33;103721;1262;112605;-75
2024/04/20 10:15:17;;;;;;;3.90;3.60;;;;;;;13.77;66.95;99265.85;103525;1259;137873;-74
2024/04/20 10:17:44;;;;;;;3.70;3.20;;;;;;;14.47;67.34;99262.56;104271;1259;97127;-71
2024/04/20 10:20:12;;;;;;;3.30;3.00;;;;;;;15.29;66.11;99264.86;104248;1259;108441;-72
2024/04/20 10:22:42;;;;;;;3.00;2.80;;;;;;;15.85;64.98;99267.55;103423;1263;137808;-70
2024/04/20 10:25:13;;;;;;;3.30;3.00;;;;;;;16.14;62.53;99273.45;103537;1259;113533;-71
2024/04/20 10:27:49;;;;;;;3.80;3.30;;;;;;;16.10;61.52;99272.99;103070;1259;137853;-72
2024/04/20 10:30:22;;;;;;;3.80;3.50;;;;;;;16.05;60.58;99281.59;103090;1264;99210;-72
2024/04/20 10:33:05;;;;;;;4.10;3.70;;;;;;;15.90;59.90;99277.59;102925;1259;139432;-72
2024/04/20 10:35:32;;;;;;;4.50;3.90;;;;;;;15.84;60.00;99276.21;102925;1263;99308;-73
2024/04/20 10:38:04;;;;;;;3.70;3.40;;;;;;;15.89;59.76;99279.22;102949;1259;112475;-61
2024/04/20 10:40:32;;;;;;;3.90;3.40;;;;;;;16.01;60.08;99282.20;102846;1261;137936;-61
2024/04/20 10:43:12;;;;;;;3.50;3.20;;;;;;;16.42;60.71;99282.65;103044;1262;99823;-61
2024/04/20 10:45:40;;;;;;;3.80;3.40;;;;;;;16.91;60.52;99279.82;103011;1264;137719;-61
2024/04/20 10:48:10;;;;;;;4.60;3.70;;;;;;;17.13;60.10;99284.15;103007;1263;99291;-61
2024/04/20 10:50:37;;;;;;;3.70;3.40;;;;;;;17.19;58.99;99284.21;104125;1259;137706;-60
2024/04/20 10:53:07;;;;;;;3.70;3.40;;;;;;;17.00;58.00;99287.94;104204;1263;108530;-61
2024/04/20 10:55:34;;;;;;;4.50;4.10;;;;;;;16.69;56.83;99293.02;104277;1260;97093;-61
2024/04/20 10:58:01;;;;;;;13.50;4.10;;;;;;;16.25;56.46;99304.91;104061;1259;139128;-58
2024/04/20 11:00:28;;;;;;;17.10;4.80;;;;;;;15.91;56.06;99303.08;104181;1259;97250;-59
2024/04/20 11:02:56;;;;;;;4.50;3.90;;;;;;;15.43;55.76;99307.41;103949;1263;138620;-59
2024/04/20 11:05:24;;;;;;;4.70;4.20;;;;;;;14.97;55.65;99307.08;103160;1260;107811;-58
2024/04/20 11:08:01;;;;;;;9.50;4.90;;;;;;;14.55;56.19;99316.98;103119;1263;99065;-57
2024/04/20 11:10:26;;;;;;;;;;;;;;;14.08;56.51;99320.09;102899;1263;137898;-58
2024/04/20 11:13:03;;;;;;;4.80;3.90;;;;;;;13.65;56.93;99325.61;103352;1261;99204;-58
2024/04/20 11:15:28;;;;;;;;;;;;;;;13.25;57.51;99327.26;103022;1263;137732;-58